Time;durP1;ratioP1;P1;durP2;ratioP2;P2;SDS_P1;SDS_P2;PMS_P1;PMS_P2;Temp;Humidity;BMP_temperature;BMP_pressure;BME280_temperature;BME280_humidity;BME280_pressure;Samples;Min_cycle;Max_cycle;Signal;HPM_P1;HPM_P2
2022/05/02 00:02:17;;;;;;;10.90;9.40;;;;;;;8.82;100.00;96568.94;5039427;28;20977;-74
2022/05/02 00:04:44;;;;;;;11.33;9.73;;;;;;;8.72;100.00;96559.47;5042014;28;20443;-74
2022/05/02 00:07:11;;;;;;;11.80;10.67;;;;;;;8.51;100.00;96537.41;5052243;28;20432;-74
2022/05/02 00:09:38;;;;;;;10.20;9.20;;;;;;;8.69;100.00;96546.91;5042700;28;20456;-74
2022/05/02 00:12:05;;;;;;;10.83;9.73;;;;;;;8.84;100.00;96559.63;5042072;28;20472;-74
2022/05/02 00:14:32;;;;;;;10.53;9.50;;;;;;;8.79;100.00;96567.66;5042193;28;20463;-74
2022/05/02 00:16:58;;;;;;;11.40;10.37;;;;;;;8.54;100.00;96545.47;5060619;28;20432;-74
2022/05/02 00:19:25;;;;;;;9.20;8.30;;;;;;;8.14;100.00;96505.19;5059717;28;20972;-74
2022/05/02 00:21:55;;;;;;;10.40;9.50;;;;;;;8.33;100.00;96535.78;5053454;28;20943;-74
2022/05/02 00:24:21;;;;;;;11.47;10.27;;;;;;;8.30;100.00;96531.91;5036944;28;20468;-74
2022/05/02 00:26:48;;;;;;;15.13;10.17;;;;;;;8.14;100.00;96521.00;5036409;28;20440;-74
2022/05/02 00:29:15;;;;;;;10.30;8.90;;;;;;;8.36;100.00;96537.81;5052686;28;20471;-74
2022/05/02 00:31:41;;;;;;;10.60;9.70;;;;;;;8.34;100.00;96511.78;5042981;28;20465;-74
2022/05/02 00:34:08;;;;;;;10.13;9.03;;;;;;;8.20;100.00;96500.56;5053664;28;20786;-74
2022/05/02 00:36:34;;;;;;;12.03;10.17;;;;;;;8.51;100.00;96540.03;5036120;28;20442;-74
2022/05/02 00:39:01;;;;;;;8.97;8.10;;;;;;;8.34;100.00;96495.19;5036538;28;20882;-74
2022/05/02 00:41:28;;;;;;;8.47;7.67;;;;;;;8.55;100.00;96538.34;5036103;28;20498;-74
2022/05/02 00:43:55;;;;;;;10.10;9.03;;;;;;;8.37;100.00;96532.25;5054103;28;20472;-74
2022/05/02 00:46:23;;;;;;;13.77;9.07;;;;;;;8.49;100.00;96539.56;5035652;28;20577;-74
2022/05/02 00:48:52;;;;;;;9.30;8.10;;;;;;;8.34;100.00;96497.81;5039293;28;20438;-74
2022/05/02 00:51:20;;;;;;;9.67;8.87;;;;;;;8.50;100.00;96530.56;5019103;28;20492;-74
2022/05/02 00:53:48;;;;;;;9.47;8.67;;;;;;;8.61;100.00;96531.06;5035959;28;20483;-74
2022/05/02 00:56:16;;;;;;;10.73;8.50;;;;;;;8.47;100.00;96521.44;5035787;28;20471;-74
2022/05/02 00:58:43;;;;;;;10.33;8.40;;;;;;;8.53;100.00;96536.00;5036323;28;20482;-74
2022/05/02 01:01:09;;;;;;;8.43;7.70;;;;;;;8.49;100.00;96542.19;5035012;28;20500;-74
2022/05/02 01:03:36;;;;;;;8.73;7.87;;;;;;;8.47;100.00;96545.16;5035427;28;20951;-74
2022/05/02 01:08:49;;;;;;;9.63;8.73;;;;;;;8.09;100.00;96510.59;5054058;28;20797;-74
2022/05/02 01:11:16;;;;;;;9.03;8.23;;;;;;;8.22;100.00;96522.88;5053340;28;20462;-74
2022/05/02 01:13:44;;;;;;;10.60;9.60;;;;;;;8.43;100.00;96546.06;5035075;28;20443;-74
2022/05/02 01:16:14;;;;;;;11.47;7.60;;;;;;;8.42;100.00;96544.53;5053376;28;20455;-74
2022/05/02 01:18:42;;;;;;;10.03;9.07;;;;;;;8.15;100.00;96538.38;5035319;28;20428;-74
2022/05/02 01:21:10;;;;;;;8.73;7.90;;;;;;;8.10;100.00;96496.34;5034772;28;20544;-74
2022/05/02 01:23:37;;;;;;;10.73;9.70;;;;;;;8.11;100.00;96526.88;5035310;28;20828;-74
2022/05/02 01:26:03;;;;;;;10.40;7.43;;;;;;;7.83;100.00;96483.41;5035150;28;20453;-74
2022/05/02 01:28:30;;;;;;;10.67;8.63;;;;;;;8.25;100.00;96527.53;5034634;28;20689;-74
2022/05/02 01:30:57;;;;;;;10.53;9.47;;;;;;;8.27;100.00;96524.59;5034432;28;20487;-74
2022/05/02 01:33:24;;;;;;;9.67;8.77;;;;;;;8.05;100.00;96483.34;5034634;28;20501;-74
2022/05/02 01:35:50;;;;;;;9.87;8.87;;;;;;;8.11;100.00;96502.41;5034684;28;20530;-74
2022/05/02 01:38:17;;;;;;;10.00;9.10;;;;;;;8.03;100.00;96482.88;5051265;28;20468;-74
2022/05/02 01:40:44;;;;;;;9.60;8.70;;;;;;;7.98;100.00;96488.25;5051280;28;20482;-74
2022/05/02 01:43:10;;;;;;;9.20;8.40;;;;;;;8.27;100.00;96512.19;5052089;28;20789;-74
2022/05/02 01:45:37;;;;;;;9.43;8.53;;;;;;;8.15;100.00;96490.97;5052635;28;20435;-75
2022/05/02 01:48:04;;;;;;;10.73;9.67;;;;;;;8.00;100.00;96483.47;5048221;28;20436;-75
2022/05/02 01:50:31;;;;;;;12.37;7.73;;;;;;;8.17;100.00;96491.44;5034406;28;20559;-75
2022/05/02 01:52:57;;;;;;;11.10;7.90;;;;;;;8.30;100.00;96519.50;5037193;28;20538;-75
2022/05/02 01:55:24;;;;;;;9.17;7.43;;;;;;;8.32;100.00;96519.19;5052600;28;20558;-74
2022/05/02 01:57:50;;;;;;;9.60;8.70;;;;;;;8.26;100.00;96510.66;5052226;28;20510;-74
2022/05/02 02:00:17;;;;;;;9.23;8.40;;;;;;;8.17;100.00;96509.88;5034334;28;20455;-74
2022/05/02 02:02:44;;;;;;;10.43;8.23;;;;;;;8.06;100.00;96482.25;5051561;28;20436;-74
2022/05/02 02:07:56;;;;;;;10.60;8.20;;;;;;;8.18;100.00;96505.38;5034332;28;20482;-74
2022/05/02 02:10:23;;;;;;;9.47;8.57;;;;;;;8.10;100.00;96488.47;5034037;28;20551;-74
2022/05/02 02:12:49;;;;;;;9.07;8.17;;;;;;;8.19;100.00;96504.28;5037077;28;20472;-74
2022/05/02 02:15:16;;;;;;;10.37;8.43;;;;;;;8.14;100.00;96509.69;5023094;28;20491;-74
2022/05/02 02:17:43;;;;;;;8.97;8.17;;;;;;;8.01;100.00;96498.19;5032142;28;20472;-74
2022/05/02 02:20:11;;;;;;;8.57;7.57;;;;;;;8.04;100.00;96497.59;5033818;28;20549;-74
2022/05/02 02:22:39;;;;;;;8.93;7.70;;;;;;;7.91;100.00;96486.09;5021632;28;20527;-74
2022/05/02 02:25:07;;;;;;;8.37;7.17;;;;;;;8.03;100.00;96492.63;5053531;28;20463;-74
2022/05/02 02:27:34;;;;;;;9.10;8.40;;;;;;;7.84;100.00;96493.63;5053118;28;20536;-74
2022/05/02 02:30:01;;;;;;;8.93;8.00;;;;;;;7.68;100.00;96479.31;5051511;28;20511;-74
2022/05/02 02:32:28;;;;;;;9.10;8.20;;;;;;;7.71;100.00;96476.09;5033929;28;20467;-74
2022/05/02 02:34:54;;;;;;;10.37;8.97;;;;;;;7.32;100.00;96438.16;5033692;28;20455;-74
2022/05/02 02:37:21;;;;;;;9.10;8.07;;;;;;;7.63;100.00;96477.63;5036433;28;20812;-75
2022/05/02 02:39:48;;;;;;;9.10;8.20;;;;;;;7.58;100.00;96472.47;5041453;28;20456;-74
2022/05/02 02:42:14;;;;;;;10.40;8.57;;;;;;;7.83;100.00;96488.69;5059372;28;20460;-74
2022/05/02 02:44:41;;;;;;;9.03;8.27;;;;;;;7.85;100.00;96492.56;5041007;28;20439;-74
2022/05/02 02:47:07;;;;;;;11.10;9.27;;;;;;;7.85;100.00;96487.28;5040872;28;20469;-74
2022/05/02 02:49:34;;;;;;;10.77;9.77;;;;;;;7.85;100.00;96474.13;5048235;28;20943;-74
2022/05/02 02:52:01;;;;;;;10.93;9.93;;;;;;;7.91;100.00;96485.31;5038183;28;20504;-74
2022/05/02 02:54:27;;;;;;;12.27;10.27;;;;;;;7.88;100.00;96481.44;5034132;28;21169;-74
2022/05/02 02:56:54;;;;;;;11.27;10.07;;;;;;;7.93;100.00;96481.28;5055729;28;20950;-74
2022/05/02 02:59:20;;;;;;;13.03;11.73;;;;;;;7.84;100.00;96466.53;5021123;28;20436;-74
2022/05/02 03:01:47;;;;;;;12.60;11.30;;;;;;;7.74;100.00;96445.75;5037387;28;20527;-74
2022/05/02 03:06:59;;;;;;;11.00;9.73;;;;;;;7.65;100.00;96438.63;5037844;28;20878;-74
2022/05/02 03:09:28;;;;;;;9.80;9.00;;;;;;;7.81;100.00;96452.13;5041530;28;20458;-74
2022/05/02 03:11:55;;;;;;;12.17;10.23;;;;;;;7.57;100.00;96438.56;5037272;28;20522;-74
2022/05/02 03:14:21;;;;;;;10.13;9.10;;;;;;;7.70;100.00;96472.69;5055231;28;21050;-74
2022/05/02 03:16:48;;;;;;;13.07;9.80;;;;;;;7.50;100.00;96448.78;5037599;28;20485;-74
2022/05/02 03:19:15;;;;;;;10.93;9.83;;;;;;;7.68;100.00;96468.81;5041866;28;20451;-74
2022/05/02 03:21:41;;;;;;;11.10;9.37;;;;;;;7.55;100.00;96457.28;5037318;28;20438;-74
2022/05/02 03:24:08;;;;;;;9.07;8.27;;;;;;;7.50;100.00;96444.28;5037223;28;20889;-74
2022/05/02 03:26:34;;;;;;;9.80;8.90;;;;;;;7.71;100.00;96468.97;5037501;28;20535;-74
2022/05/02 03:29:01;;;;;;;12.13;9.23;;;;;;;7.62;100.00;96459.50;5054920;28;20437;-74
2022/05/02 03:31:27;;;;;;;9.90;8.90;;;;;;;7.70;100.00;96458.75;5054685;28;20444;-74
2022/05/02 03:33:54;;;;;;;8.53;7.83;;;;;;;7.79;100.00;96466.69;5054804;28;20962;-74
2022/05/02 03:36:21;;;;;;;10.50;9.60;;;;;;;7.60;100.00;96459.78;5036719;28;20447;-74
2022/05/02 03:38:47;;;;;;;10.60;9.67;;;;;;;7.57;100.00;96470.16;5036794;28;20480;-74
2022/05/02 03:41:14;;;;;;;10.53;9.53;;;;;;;7.61;100.00;96477.16;5036674;28;20490;-74
2022/05/02 03:43:42;;;;;;;10.60;9.63;;;;;;;7.26;100.00;96451.75;5036656;28;20495;-74
2022/05/02 03:46:09;;;;;;;10.03;9.00;;;;;;;7.13;100.00;96471.00;5044845;28;20460;-74
2022/05/02 03:48:36;;;;;;;13.00;11.73;;;;;;;7.19;100.00;96456.63;5036515;28;20455;-74
2022/05/02 03:51:03;;;;;;;10.40;9.50;;;;;;;7.21;100.00;96465.81;5036301;28;20547;-74
2022/05/02 03:53:29;;;;;;;13.50;10.73;;;;;;;7.11;100.00;96472.06;5037563;28;20466;-74
2022/05/02 03:55:56;;;;;;;11.20;10.20;;;;;;;7.03;100.00;96441.25;5036244;28;20961;-74
2022/05/02 03:58:23;;;;;;;9.77;8.93;;;;;;;7.31;100.00;96464.75;5036540;28;20444;-74
2022/05/02 04:00:49;;;;;;;12.23;10.87;;;;;;;7.12;100.00;96428.16;5024305;28;20463;-74
2022/05/02 04:03:16;;;;;;;11.50;10.40;;;;;;;7.25;100.00;96466.75;5053186;28;20423;-74
2022/05/02 04:05:43;;;;;;;9.87;8.80;;;;;;;7.27;100.00;96463.81;5053101;28;20846;-74
2022/05/02 04:08:10;;;;;;;10.20;9.20;;;;;;;7.13;100.00;96452.59;5054385;28;20427;-74
2022/05/02 04:10:36;;;;;;;10.27;9.33;;;;;;;7.28;100.00;96471.41;5052936;28;21066;-74
2022/05/02 04:13:03;;;;;;;11.43;10.17;;;;;;;7.28;100.00;96475.88;5036078;28;20786;-74
2022/05/02 04:15:30;;;;;;;11.07;10.00;;;;;;;6.90;100.00;96439.44;5036392;28;20442;-74
2022/05/02 04:17:58;;;;;;;11.80;10.80;;;;;;;7.11;100.00;96468.66;5036183;28;20444;-74
2022/05/02 04:20:25;;;;;;;11.57;10.07;;;;;;;6.73;100.00;96442.75;5053888;28;20504;-74
2022/05/02 04:22:51;;;;;;;12.73;9.10;;;;;;;7.01;100.00;96474.16;5053851;28;20420;-74
2022/05/02 04:25:18;;;;;;;10.60;9.37;;;;;;;7.04;100.00;96479.59;5054003;28;20524;-74
2022/05/02 04:27:45;;;;;;;11.37;10.37;;;;;;;6.98;100.00;96470.28;5035831;28;20501;-74
2022/05/02 04:30:12;;;;;;;12.17;11.00;;;;;;;6.89;100.00;96440.53;5052272;28;20546;-74
2022/05/02 04:32:40;;;;;;;13.23;11.23;;;;;;;7.22;100.00;96472.59;5038873;28;20999;-74
2022/05/02 04:35:10;;;;;;;13.23;10.43;;;;;;;7.05;100.00;96457.47;5053839;28;20431;-74
2022/05/02 04:37:39;;;;;;;15.40;11.60;;;;;;;7.06;100.00;96448.50;5052530;28;20443;-73
2022/05/02 04:40:07;;;;;;;17.73;15.00;;;;;;;7.09;100.00;96447.16;5035758;28;20494;-74
2022/05/02 04:42:34;;;;;;;22.20;19.83;;;;;;;7.02;100.00;96473.09;5036360;28;20777;-74
2022/05/02 04:45:00;;;;;;;17.43;15.63;;;;;;;6.97;100.00;96460.06;5040283;28;20848;-74
2022/05/02 04:47:27;;;;;;;12.43;11.23;;;;;;;6.72;100.00;96471.94;5053786;28;20427;-74
2022/05/02 04:50:01;;;;;;;11.90;10.03;;;;;;;6.65;100.00;96450.53;5031933;28;21091;-74
2022/05/02 04:52:28;;;;;;;10.00;9.10;;;;;;;6.96;100.00;96479.56;5028634;28;20499;-74
2022/05/02 04:54:54;;;;;;;9.80;8.80;;;;;;;7.07;100.00;96481.63;5041981;28;20565;-75
2022/05/02 04:57:21;;;;;;;11.87;10.67;;;;;;;7.13;100.00;96494.66;5036343;28;20440;-74
2022/05/02 04:59:48;;;;;;;11.40;10.30;;;;;;;7.28;100.00;96496.91;5035279;28;20555;-73
2022/05/02 05:02:15;;;;;;;11.00;9.90;;;;;;;7.33;100.00;96483.63;5035464;28;20518;-74
2022/05/02 05:04:41;;;;;;;12.03;10.93;;;;;;;7.46;100.00;96487.25;5034876;28;20439;-74
2022/05/02 05:07:08;;;;;;;12.10;9.70;;;;;;;7.41;100.00;96462.66;5007026;28;20519;-74
2022/05/02 05:09:36;;;;;;;12.40;10.30;;;;;;;7.52;100.00;96462.41;5049920;28;20491;-74
2022/05/02 05:12:33;;;;;;;11.70;10.60;;;;;;;7.79;100.00;96490.38;5041081;28;20451;-75
2022/05/02 05:18:31;;;;;;;10.77;9.70;;;;;;;7.94;100.00;96471.53;5053309;28;20419;-74
2022/05/02 05:21:22;;;;;;;12.43;11.20;;;;;;;7.74;100.00;96458.91;5035937;28;20494;-74
2022/05/02 05:24:27;;;;;;;12.27;11.00;;;;;;;7.87;100.00;96490.38;5035462;28;20494;-74
2022/05/02 05:27:13;;;;;;;10.83;9.80;;;;;;;8.08;100.00;96493.25;5052921;28;20450;-74
2022/05/02 05:30:04;;;;;;;11.00;10.10;;;;;;;8.11;100.00;96471.56;5035254;28;20558;-74
2022/05/02 05:32:34;;;;;;;10.63;9.63;;;;;;;8.63;100.00;96492.00;5035512;28;20529;-73
2022/05/02 05:35:07;;;;;;;10.33;9.43;;;;;;;8.81;100.00;96494.34;5053248;28;20429;-74
2022/05/02 05:38:08;;;;;;;14.57;11.00;;;;;;;8.98;100.00;96490.16;5036394;28;20451;-74
2022/05/02 05:40:38;;;;;;;11.30;10.37;;;;;;;9.26;100.00;96501.13;5036606;28;20455;-74
2022/05/02 05:43:37;;;;;;;12.47;10.40;;;;;;;9.59;100.00;96496.09;5036707;28;20451;-74
2022/05/02 05:46:37;;;;;;;19.50;13.43;;;;;;;9.54;100.00;96472.50;5036463;28;20505;-74
2022/05/02 05:49:27;;;;;;;16.60;12.43;;;;;;;10.10;100.00;96507.56;5024765;28;20509;-75
2022/05/02 05:52:06;;;;;;;14.43;13.03;;;;;;;10.45;100.00;96500.25;5037538;28;20531;-74
2022/05/02 05:54:36;;;;;;;15.13;12.77;;;;;;;10.64;100.00;96503.22;5035671;28;20522;-74
2022/05/02 05:57:16;;;;;;;14.90;13.53;;;;;;;10.80;100.00;96504.19;5052465;28;20490;-74
2022/05/02 06:00:04;;;;;;;18.57;11.87;;;;;;;10.91;100.00;96505.38;5034680;28;20455;-74
2022/05/02 06:02:50;;;;;;;10.73;9.63;;;;;;;11.15;100.00;96499.41;5035807;28;20436;-74
2022/05/02 06:05:17;;;;;;;11.77;10.13;;;;;;;11.42;100.00;96505.25;5046505;28;20518;-74
2022/05/02 06:07:46;;;;;;;9.87;8.97;;;;;;;11.49;100.00;96503.63;5052911;28;20436;-74
2022/05/02 06:10:17;;;;;;;10.10;9.13;;;;;;;11.59;100.00;96501.63;5034617;28;20503;-74
2022/05/02 06:12:45;;;;;;;19.10;9.67;;;;;;;11.69;100.00;96514.47;5034061;28;20492;-74
2022/05/02 06:20:51;;;;;;;8.80;8.20;;;;;;;11.98;100.00;96508.22;5038100;28;20825;-74
2022/05/02 06:23:17;;;;;;;9.50;8.60;;;;;;;12.19;100.00;96494.88;5034015;28;20472;-74
2022/05/02 06:25:48;;;;;;;9.37;7.90;;;;;;;12.00;100.00;96496.19;5033657;28;20448;-74
2022/05/02 06:28:16;;;;;;;8.83;7.93;;;;;;;12.55;100.00;96510.75;5033885;28;21063;-74
2022/05/02 06:30:43;;;;;;;11.63;7.90;;;;;;;12.10;100.00;96418.13;5032724;28;20490;-74
2022/05/02 06:33:12;;;;;;;8.93;8.13;;;;;;;12.74;100.00;96504.88;5050501;28;20467;-74
2022/05/02 06:36:27;;;;;;;8.70;7.80;;;;;;;13.01;100.00;96519.28;5051004;28;20448;-74
2022/05/02 06:39:02;;;;;;;10.50;8.07;;;;;;;13.07;100.00;96523.25;4975140;28;20444;-75
2022/05/02 06:41:44;;;;;;;8.70;7.90;;;;;;;12.90;100.00;96491.69;5051821;28;20487;-75
2022/05/02 06:44:11;;;;;;;10.60;7.70;;;;;;;13.25;100.00;96510.50;5022502;28;20772;-75
2022/05/02 06:46:47;;;;;;;8.30;7.50;;;;;;;13.28;100.00;96501.84;5033801;28;20865;-75
2022/05/02 06:49:16;;;;;;;11.50;7.77;;;;;;;13.68;100.00;96519.59;5033188;28;20446;-74
2022/05/02 06:51:49;;;;;;;8.37;7.50;;;;;;;13.49;100.00;96491.03;5033272;28;20545;-74
2022/05/02 06:54:54;;;;;;;8.20;7.27;;;;;;;13.39;97.39;96473.69;5051397;28;20456;-74
2022/05/02 06:57:39;;;;;;;7.73;6.40;;;;;;;13.59;96.23;96520.50;5025746;28;20447;-74
2022/05/02 07:00:10;;;;;;;11.37;5.87;;;;;;;13.90;95.26;96525.09;5033390;28;20513;-74
2022/05/02 07:02:45;;;;;;;7.27;6.57;;;;;;;13.98;90.81;96527.91;5017383;28;20433;-75
2022/05/02 07:05:26;;;;;;;6.60;6.00;;;;;;;14.17;90.10;96526.13;5051391;28;20842;-75
2022/05/02 07:08:03;;;;;;;7.97;7.20;;;;;;;13.68;85.01;96520.34;5033662;28;20842;-75
2022/05/02 07:10:33;;;;;;;7.20;6.23;;;;;;;14.04;83.04;96530.00;5013597;28;21000;-75
2022/05/02 07:13:15;;;;;;;7.03;6.47;;;;;;;14.18;80.43;96522.34;5017095;28;20848;-75
2022/05/02 07:15:51;;;;;;;6.70;6.20;;;;;;;13.97;81.13;96502.44;5051341;28;20810;-74
2022/05/02 07:18:36;;;;;;;6.77;6.13;;;;;;;14.10;80.63;96517.97;5051172;28;20487;-74
2022/05/02 07:21:39;;;;;;;14.53;6.80;;;;;;;14.81;82.69;96515.38;5033095;28;20556;-75
2022/05/02 07:24:26;;;;;;;5.90;5.50;;;;;;;14.64;79.05;96522.66;5051053;28;20521;-74
2022/05/02 07:27:10;;;;;;;6.90;6.20;;;;;;;14.86;77.26;96531.88;5033849;28;20463;-74
2022/05/02 07:29:39;;;;;;;8.40;5.77;;;;;;;14.42;78.97;96531.22;5038283;28;20456;-75
2022/05/02 07:32:09;;;;;;;5.80;5.20;;;;;;;14.49;77.81;96526.13;5033569;28;20432;-75
2022/05/02 07:34:37;;;;;;;11.33;6.40;;;;;;;14.05;77.46;96486.34;5033096;28;20469;-74
2022/05/02 07:37:04;;;;;;;7.33;4.93;;;;;;;14.54;77.70;96517.09;5051239;28;20554;-75
2022/05/02 07:39:35;;;;;;;8.50;7.43;;;;;;;14.63;78.60;96531.75;5033576;28;20433;-75
2022/05/02 07:42:05;;;;;;;6.03;5.40;;;;;;;15.41;75.50;96531.81;5053536;28;20422;-75
2022/05/02 07:44:34;;;;;;;6.10;5.40;;;;;;;15.43;73.46;96503.69;5054774;28;20456;-75
2022/05/02 07:47:03;;;;;;;9.37;6.27;;;;;;;15.55;71.82;96535.53;5036706;28;20535;-75
2022/05/02 07:49:32;;;;;;;13.50;7.33;;;;;;;15.51;73.62;96524.03;5037328;28;20483;-75
2022/05/02 07:52:02;;;;;;;9.40;6.37;;;;;;;15.54;71.69;96530.53;5055933;28;21208;-74
2022/05/02 07:54:36;;;;;;;6.00;5.50;;;;;;;15.00;71.80;96529.50;5056240;28;20511;-74
2022/05/02 07:57:05;;;;;;;7.30;6.60;;;;;;;15.10;71.57;96528.19;5037801;28;20437;-74
2022/05/02 07:59:43;;;;;;;7.13;6.10;;;;;;;14.95;71.65;96503.13;5039753;28;20468;-74
2022/05/02 08:02:09;;;;;;;8.80;5.80;;;;;;;14.65;72.09;96518.09;5044616;28;20509;-75
2022/05/02 08:04:37;;;;;;;9.10;6.70;;;;;;;14.55;73.00;96522.06;5066572;28;20432;-74
2022/05/02 08:07:18;;;;;;;7.63;6.73;;;;;;;14.94;73.12;96519.47;5027644;28;20535;-75
2022/05/02 08:10:12;;;;;;;9.13;6.63;;;;;;;15.49;71.38;96525.47;5055096;28;20449;-75
2022/05/02 08:12:55;;;;;;;6.57;5.97;;;;;;;15.80;68.37;96521.91;5036882;28;20946;-75
2022/05/02 08:15:31;;;;;;;6.30;5.70;;;;;;;16.06;67.80;96524.63;5054977;28;20456;-75
2022/05/02 08:18:37;;;;;;;8.03;6.67;;;;;;;15.66;68.08;96517.09;5037308;28;20480;-75
2022/05/02 08:21:12;;;;;;;7.63;6.70;;;;;;;15.75;70.28;96520.28;5033634;28;20885;-75
2022/05/02 08:29:40;;;;;;;7.23;6.63;;;;;;;16.43;68.84;96519.50;5041152;28;20547;-75
2022/05/02 08:32:10;;;;;;;8.07;7.00;;;;;;;16.30;68.22;96523.50;5035830;28;20465;-75
2022/05/02 08:34:40;;;;;;;7.10;5.73;;;;;;;16.71;66.50;96519.16;5036769;28;20472;-74
2022/05/02 08:37:34;;;;;;;8.60;7.90;;;;;;;16.46;65.48;96513.44;5040309;28;20432;-75
2022/05/02 08:40:22;;;;;;;7.43;6.23;;;;;;;17.31;67.85;96521.03;5053844;28;20441;-74
2022/05/02 08:43:26;;;;;;;6.90;6.20;;;;;;;16.58;66.16;96514.34;5036409;28;20433;-75
2022/05/02 08:46:08;;;;;;;7.07;6.43;;;;;;;16.90;66.47;96509.47;5036082;28;20489;-75
2022/05/02 08:48:47;;;;;;;7.70;6.33;;;;;;;17.25;64.76;96507.22;5033998;28;20441;-76
2022/05/02 08:51:54;;;;;;;6.70;6.10;;;;;;;17.58;63.57;96509.09;5019632;28;20484;-76
2022/05/02 08:54:39;;;;;;;7.37;5.97;;;;;;;17.64;63.54;96504.97;5053116;28;20829;-75
2022/05/02 08:57:23;;;;;;;7.57;6.87;;;;;;;16.93;63.54;96488.13;5035416;28;20465;-75
2022/05/02 09:00:29;;;;;;;8.50;7.00;;;;;;;16.65;63.46;96479.75;5035270;28;20527;-75
2022/05/02 09:03:25;;;;;;;7.13;6.53;;;;;;;17.10;63.40;96505.53;5032875;28;20541;-75
2022/05/02 09:06:23;;;;;;;6.40;5.77;;;;;;;17.14;62.37;96501.00;5035747;28;20441;-75
2022/05/02 09:09:21;;;;;;;6.70;5.43;;;;;;;17.36;62.07;96497.44;5035545;28;20469;-75
2022/05/02 09:11:59;;;;;;;7.10;6.40;;;;;;;17.06;63.17;96500.13;5035117;28;20520;-75
2022/05/02 09:14:45;;;;;;;7.47;5.60;;;;;;;17.09;63.58;96496.75;5035241;28;20448;-75
2022/05/02 09:17:43;;;;;;;7.00;5.70;;;;;;;17.40;64.21;96497.47;5035315;28;20532;-76
2022/05/02 09:20:41;;;;;;;7.00;5.63;;;;;;;17.33;64.33;96494.69;5034754;28;20527;-76
2022/05/02 09:23:26;;;;;;;7.00;6.40;;;;;;;17.11;63.50;96442.94;5035113;28;20457;-77
2022/05/02 09:26:26;;;;;;;7.03;6.47;;;;;;;17.93;62.45;96498.00;5035155;28;20862;-77
2022/05/02 09:28:53;;;;;;;6.30;5.00;;;;;;;18.38;61.71;96500.63;5034965;28;20525;-76
2022/05/02 09:31:57;;;;;;;5.40;4.93;;;;;;;17.61;62.43;96484.28;5034950;28;20841;-77
2022/05/02 09:34:38;;;;;;;5.73;5.23;;;;;;;17.65;62.77;96493.13;5039158;28;20452;-77
2022/05/02 09:37:06;;;;;;;8.07;6.60;;;;;;;17.75;62.94;96477.56;5034598;28;20449;-77
2022/05/02 09:39:46;;;;;;;5.03;4.63;;;;;;;17.65;64.72;96457.63;5034652;28;20485;-75
2022/05/02 09:42:29;;;;;;;5.80;5.20;;;;;;;18.13;63.31;96482.47;5052453;28;20424;-75
2022/05/02 09:50:56;;;;;;;7.00;6.37;;;;;;;18.05;61.67;96475.56;5052584;28;20533;-76
2022/05/02 09:53:41;;;;;;;6.07;4.53;;;;;;;17.85;62.08;96468.88;5035335;28;20457;-75
2022/05/02 09:59:16;;;;;;;6.57;6.07;;;;;;;18.20;63.66;96469.16;5034962;28;20465;-75
2022/05/02 10:01:48;;;;;;;7.37;5.40;;;;;;;18.35;61.70;96453.19;5034200;28;20476;-75
2022/05/02 10:04:53;;;;;;;5.70;5.20;;;;;;;17.85;60.46;96468.88;5034653;28;20422;-75
2022/05/02 10:07:24;;;;;;;5.40;4.80;;;;;;;17.95;61.75;96458.28;5052277;28;20463;-75
2022/05/02 10:10:23;;;;;;;5.60;4.70;;;;;;;18.30;60.38;96465.78;5034228;28;20548;-75
2022/05/02 10:12:49;;;;;;;10.00;5.10;;;;;;;17.85;61.26;96464.28;5034584;28;20540;-73
2022/05/02 10:15:32;;;;;;;5.30;4.83;;;;;;;17.30;60.99;96394.66;5034117;28;20473;-73
2022/05/02 10:18:24;;;;;;;5.27;4.77;;;;;;;18.06;63.32;96462.94;5035128;28;20945;-74
2022/05/02 10:21:12;;;;;;;6.30;5.57;;;;;;;18.07;61.37;96414.41;5053175;28;20552;-73
2022/05/02 10:23:47;;;;;;;7.97;7.27;;;;;;;18.98;58.54;96452.00;5018657;28;20468;-73
2022/05/02 10:26:44;;;;;;;7.00;5.70;;;;;;;19.25;59.53;96452.47;5035278;28;20941;-75
2022/05/02 10:29:41;;;;;;;5.60;5.10;;;;;;;18.90;58.85;96430.53;5034650;28;20429;-74
2022/05/02 10:32:49;;;;;;;5.93;5.43;;;;;;;18.25;56.97;96419.84;5034643;28;20441;-74
2022/05/02 10:35:18;;;;;;;5.80;4.63;;;;;;;18.90;56.98;96448.53;4996712;28;20481;-74
2022/05/02 10:38:02;;;;;;;5.20;4.50;;;;;;;19.13;56.60;96450.91;5034200;28;20475;-74
2022/05/02 10:40:37;;;;;;;6.40;4.27;;;;;;;18.64;56.24;96416.66;5033985;28;20453;-74
2022/05/02 10:43:06;;;;;;;4.97;4.57;;;;;;;18.96;56.52;96443.56;5034135;28;21037;-74
2022/05/02 10:45:36;;;;;;;3.33;3.03;;;;;;;18.77;56.38;96421.28;5052088;28;20430;-74
2022/05/02 10:48:17;;;;;;;3.50;3.30;;;;;;;18.82;53.62;96428.97;5033830;28;20540;-75
2022/05/02 10:51:05;;;;;;;5.80;3.40;;;;;;;18.84;53.34;96437.41;5034306;28;20552;-74
2022/05/02 10:54:00;;;;;;;3.57;3.27;;;;;;;18.78;55.23;96425.50;5052096;28;20483;-75
2022/05/02 10:56:43;;;;;;;3.80;3.60;;;;;;;18.28;56.51;96424.47;5033963;28;20467;-75
2022/05/02 10:59:23;;;;;;;7.00;4.53;;;;;;;18.41;56.13;96403.50;5034358;28;20491;-74
2022/05/02 11:02:05;;;;;;;3.60;3.40;;;;;;;18.19;54.05;96434.75;5034251;28;20465;-74
2022/05/02 11:04:50;;;;;;;4.37;3.97;;;;;;;18.40;54.25;96429.50;5033944;28;20461;-74
2022/05/02 11:07:34;;;;;;;3.63;3.30;;;;;;;18.49;54.50;96435.28;5034148;28;20528;-74
2022/05/02 11:10:07;;;;;;;3.90;3.20;;;;;;;18.16;54.44;96419.41;5051986;28;20518;-74
2022/05/02 11:12:42;;;;;;;4.10;3.70;;;;;;;17.94;54.34;96405.91;5034960;28;20870;-74
2022/05/02 11:15:16;;;;;;;3.60;3.30;;;;;;;17.97;54.98;96423.13;5040289;28;20860;-74
2022/05/02 11:20:41;;;;;;;4.03;3.20;;;;;;;17.87;54.93;96426.47;5044514;28;20444;-74
2022/05/02 11:21:40;;;;;;;6.40;3.23;;;;;;;18.16;54.50;96433.59;5037201;28;20460;-74
2022/05/02 11:24:12;;;;;;;3.90;3.60;;;;;;;17.72;55.15;96422.91;5037244;28;20502;-74
2022/05/02 11:26:45;;;;;;;3.67;3.37;;;;;;;17.91;57.30;96420.03;5038671;28;20475;-74
2022/05/02 11:29:37;;;;;;;3.50;3.20;;;;;;;18.26;56.22;96416.03;5037681;28;20483;-73
2022/05/02 11:32:09;;;;;;;4.60;4.20;;;;;;;17.77;56.63;96403.88;5037311;28;20465;-73
2022/05/02 11:34:51;;;;;;;5.33;4.83;;;;;;;17.64;56.91;96398.00;5055350;28;20495;-73
2022/05/02 11:37:34;;;;;;;4.67;4.27;;;;;;;18.36;57.80;96417.25;5038882;28;20439;-73
2022/05/02 11:40:06;;;;;;;4.00;3.67;;;;;;;17.83;56.35;96396.25;5020813;28;20456;-74
2022/05/02 11:42:34;;;;;;;4.47;4.17;;;;;;;17.68;56.90;96396.16;5037449;28;20430;-74
2022/05/02 11:45:11;;;;;;;4.20;3.80;;;;;;;17.83;58.26;96401.59;5037293;28;20429;-73
2022/05/02 11:47:38;;;;;;;3.83;3.53;;;;;;;17.99;55.67;96410.13;5055554;28;20464;-74
2022/05/02 11:50:06;;;;;;;5.10;4.10;;;;;;;18.05;55.65;96402.53;5055184;28;20820;-75
2022/05/02 11:52:36;;;;;;;4.47;3.53;;;;;;;18.26;55.15;96408.78;5037406;28;20442;-73
2022/05/02 11:55:05;;;;;;;3.60;3.33;;;;;;;18.24;55.98;96400.34;5017495;28;21020;-73
2022/05/02 11:57:42;;;;;;;4.30;3.97;;;;;;;18.16;55.71;96374.69;5029486;28;20455;-74
2022/05/02 12:00:14;;;;;;;4.83;4.33;;;;;;;18.35;53.81;96380.91;5036518;28;21019;-74
2022/05/02 12:02:46;;;;;;;3.30;3.00;;;;;;;18.69;52.49;96398.28;5036616;28;20844;-75
2022/05/02 12:05:20;;;;;;;3.80;3.50;;;;;;;18.29;52.71;96386.59;5036914;28;20429;-73
2022/05/02 12:07:54;;;;;;;4.50;4.10;;;;;;;18.21;52.60;96400.34;5036373;28;20484;-73
2022/05/02 12:10:32;;;;;;;4.10;3.80;;;;;;;18.21;52.12;96405.69;5036486;28;20502;-74
2022/05/02 12:13:00;;;;;;;3.90;3.07;;;;;;;18.04;52.34;96369.66;5036410;28;21024;-74
2022/05/02 12:15:28;;;;;;;3.00;2.80;;;;;;;18.25;52.52;96353.69;5036329;28;20900;-74
2022/05/02 12:18:03;;;;;;;5.00;4.60;;;;;;;18.46;53.63;96384.41;5036264;28;20433;-73
2022/05/02 12:20:31;;;;;;;5.50;4.90;;;;;;;18.29;55.05;96386.59;5016883;28;20540;-74
2022/05/02 12:23:17;;;;;;;4.27;3.97;;;;;;;18.66;54.84;96398.28;5036182;28;20448;-74
2022/05/02 12:25:54;;;;;;;4.10;3.60;;;;;;;18.54;52.25;96380.59;5036182;28;20488;-74
2022/05/02 12:28:42;;;;;;;3.50;3.20;;;;;;;18.38;51.82;96391.63;5034960;28;20430;-74
2022/05/02 12:31:16;;;;;;;3.70;3.20;;;;;;;18.70;51.37;96381.09;5036018;28;20450;-74
2022/05/02 12:33:46;;;;;;;3.87;3.53;;;;;;;18.75;51.38;96380.72;5035929;28;20993;-73
2022/05/02 12:36:15;;;;;;;3.60;3.20;;;;;;;19.02;52.25;96383.88;5036124;28;20449;-73